createdAt,value
2023-03-11T00:00:56.335Z,98502.00
2023-03-11T00:03:25.895Z,98515.00
2023-03-11T00:05:54.143Z,98523.00
2023-03-11T00:08:25.899Z,98518.00
2023-03-11T00:11:00.605Z,98538.00
2023-03-11T00:13:33.357Z,98543.00
2023-03-11T00:16:01.922Z,98551.00
2023-03-11T00:18:33.062Z,98555.00
2023-03-11T00:21:10.271Z,98553.00
2023-03-11T00:23:42.593Z,98558.00
2023-03-11T00:26:09.798Z,98570.00
2023-03-11T00:28:38.486Z,98577.00
2023-03-11T00:31:07.556Z,98573.00
2023-03-11T00:33:36.789Z,98594.00
2023-03-11T00:36:04.065Z,98597.00
2023-03-11T00:38:30.984Z,98589.00
2023-03-11T00:40:57.637Z,98598.00
2023-03-11T00:43:24.398Z,98601.00
2023-03-11T00:45:51.337Z,98606.00
2023-03-11T00:48:18.310Z,98606.00
2023-03-11T00:50:50.320Z,98610.00
2023-03-11T00:53:17.414Z,98613.00
2023-03-11T00:55:44.204Z,98620.00
2023-03-11T00:58:11.424Z,98622.00
2023-03-11T01:00:41.880Z,98630.00
2023-03-11T01:03:13.712Z,98637.00
2023-03-11T01:05:41.042Z,98649.00
2023-03-11T01:08:11.393Z,98652.00
2023-03-11T01:10:38.378Z,98667.00
2023-03-11T01:13:05.621Z,98672.00
2023-03-11T01:15:37.279Z,98679.00
2023-03-11T01:18:06.137Z,98688.00
2023-03-11T01:20:36.758Z,98695.00
2023-03-11T01:23:04.223Z,98704.00
2023-03-11T01:25:30.846Z,98718.00
2023-03-11T01:27:57.597Z,98719.00
2023-03-11T01:30:25.533Z,98731.00
2023-03-11T01:32:56.092Z,98740.00
2023-03-11T01:35:24.957Z,98748.00
2023-03-11T01:37:52.590Z,98763.00
2023-03-11T01:40:36.030Z,98771.00
2023-03-11T01:43:05.156Z,98765.00
2023-03-11T01:45:37.221Z,98769.00
2023-03-11T01:48:03.855Z,98786.00
2023-03-11T01:50:41.443Z,98792.00
2023-03-11T01:53:08.436Z,98804.00
2023-03-11T01:55:35.266Z,98812.00
2023-03-11T01:58:06.499Z,98817.00
2023-03-11T02:00:33.259Z,98826.00
2023-03-11T02:03:06.318Z,98834.00
2023-03-11T02:05:33.218Z,98857.00
2023-03-11T02:08:03.124Z,98854.00
2023-03-11T02:10:31.673Z,98858.00
2023-03-11T02:12:58.704Z,98865.00
2023-03-11T02:15:26.198Z,98870.00
2023-03-11T02:17:53.783Z,98877.00
2023-03-11T02:20:42.592Z,98904.00
2023-03-11T02:23:12.735Z,98902.00
2023-03-11T02:26:24.193Z,98911.00
2023-03-11T02:28:53.269Z,98936.00
2023-03-11T02:31:21.878Z,98936.00
2023-03-11T02:33:51.034Z,98954.00
2023-03-11T02:36:38.344Z,98951.00
2023-03-11T02:39:06.753Z,98965.00
2023-03-11T02:41:36.807Z,98970.00
2023-03-11T02:44:07.142Z,98983.00
2023-03-11T02:46:35.541Z,98993.00
2023-03-11T02:49:03.001Z,98999.00
2023-03-11T02:51:29.936Z,99005.00
2023-03-11T02:54:01.587Z,99006.00
2023-03-11T02:56:28.730Z,99023.00
2023-03-11T02:58:55.646Z,99034.00
2023-03-11T03:01:22.849Z,99053.00
2023-03-11T03:03:49.631Z,99055.00
2023-03-11T03:06:16.387Z,99063.00
2023-03-11T03:08:43.138Z,99073.00
2023-03-11T03:11:09.713Z,99087.00
2023-03-11T03:13:36.413Z,99092.00
2023-03-11T03:16:03.632Z,99099.00
2023-03-11T03:18:32.780Z,99105.00
2023-03-11T03:20:59.689Z,99112.00
2023-03-11T03:23:26.284Z,99132.00
2023-03-11T03:25:52.735Z,99127.00
2023-03-11T03:28:19.439Z,99136.00
2023-03-11T03:30:46.152Z,99145.00
2023-03-11T03:33:12.839Z,99159.00
2023-03-11T03:35:44.681Z,99169.00
2023-03-11T03:38:11.350Z,99173.00
2023-03-11T03:40:38.018Z,99180.00
2023-03-11T03:43:07.374Z,99188.00
2023-03-11T03:45:33.899Z,99203.00
2023-03-11T03:48:00.715Z,99211.00
2023-03-11T03:50:28.218Z,99213.00
2023-03-11T03:52:55.153Z,99225.00
2023-03-11T03:55:21.955Z,99236.00
2023-03-11T03:57:48.444Z,99243.00
2023-03-11T04:00:15.760Z,99244.00
2023-03-11T04:02:45.198Z,99246.00
2023-03-11T04:05:11.824Z,99263.00
2023-03-11T04:07:38.511Z,99271.00
2023-03-11T04:10:05.788Z,99271.00
2023-03-11T04:12:32.426Z,99284.00
2023-03-11T04:14:59.115Z,99289.00
2023-03-11T04:17:25.685Z,99289.00
2023-03-11T04:19:52.297Z,99300.00
2023-03-11T04:22:18.800Z,99309.00
2023-03-11T04:24:45.425Z,99316.00
2023-03-11T04:27:12.077Z,99322.00
2023-03-11T04:29:38.790Z,99317.00
2023-03-11T04:32:05.582Z,99331.00
2023-03-11T04:34:32.127Z,99342.00
2023-03-11T04:36:59.405Z,99340.00
2023-03-11T04:39:26.323Z,99348.00
2023-03-11T04:41:52.985Z,99357.00
2023-03-11T04:44:19.785Z,99372.00
2023-03-11T04:46:46.392Z,99382.00
2023-03-11T04:49:13.021Z,99371.00
2023-03-11T04:51:39.763Z,99388.00
2023-03-11T04:54:07.515Z,99395.00
2023-03-11T04:56:41.519Z,99405.00
2023-03-11T04:59:08.257Z,99412.00
2023-03-11T05:01:34.958Z,99418.00
2023-03-11T05:04:01.763Z,99420.00
2023-03-11T05:06:30.434Z,99430.00
2023-03-11T05:08:57.563Z,99436.00
2023-03-11T05:11:24.186Z,99441.00
2023-03-11T05:13:54.050Z,99446.00
2023-03-11T05:16:25.146Z,99453.00
2023-03-11T05:18:52.131Z,99464.00
2023-03-11T05:21:18.952Z,99469.00
2023-03-11T05:23:48.082Z,99473.00
2023-03-11T05:26:14.942Z,99471.00
2023-03-11T05:28:42.154Z,99483.00
2023-03-11T05:31:12.494Z,99496.00
2023-03-11T05:33:44.137Z,99496.00
2023-03-11T05:36:10.892Z,99504.00
2023-03-11T05:38:37.612Z,99506.00
2023-03-11T05:41:04.738Z,99510.00
2023-03-11T05:43:33.875Z,99519.00
2023-03-11T05:46:00.401Z,99534.00
2023-03-11T05:48:27.467Z,99530.00
2023-03-11T05:50:54.023Z,99536.00
2023-03-11T05:53:20.551Z,99539.00
2023-03-11T05:55:56.324Z,99543.00
2023-03-11T05:58:22.973Z,99546.00
2023-03-11T06:00:51.455Z,99553.00
2023-03-11T06:03:18.157Z,99560.00
2023-03-11T06:05:54.203Z,99556.00
2023-03-11T06:08:22.286Z,99572.00
2023-03-11T06:10:51.244Z,99580.00
2023-03-11T06:13:17.780Z,99570.00
2023-03-11T06:15:49.036Z,99580.00
2023-03-11T06:18:15.909Z,99583.00
2023-03-11T06:20:42.836Z,99607.00
2023-03-11T06:23:09.682Z,99587.00
2023-03-11T06:25:37.684Z,99604.00
2023-03-11T06:28:10.224Z,99614.00
2023-03-11T06:30:39.730Z,99622.00
2023-03-11T06:33:10.963Z,99625.00
2023-03-11T06:35:37.680Z,99628.00
2023-03-11T06:38:04.197Z,99645.00
2023-03-11T06:40:31.404Z,99642.00
2023-03-11T06:42:58.004Z,99653.00
2023-03-11T06:45:27.044Z,99652.00
2023-03-11T06:48:04.526Z,99657.00
2023-03-11T06:50:31.993Z,99665.00
2023-03-11T06:53:01.804Z,99677.00
2023-03-11T06:55:32.534Z,99677.00
2023-03-11T06:57:59.270Z,99697.00
2023-03-11T07:00:26.308Z,99701.00
2023-03-11T07:02:53.172Z,99702.00
2023-03-11T07:05:20.390Z,99709.00
2023-03-11T07:07:50.430Z,99696.00
2023-03-11T07:10:20.350Z,99707.00
2023-03-11T07:12:46.877Z,99721.00
2023-03-11T07:15:14.171Z,99721.00
2023-03-11T07:17:41.036Z,99719.00
2023-03-11T07:20:08.530Z,99723.00
2023-03-11T07:22:35.226Z,99734.00
2023-03-11T07:25:05.092Z,99735.00
2023-03-11T07:27:33.001Z,99743.00
2023-03-11T07:30:08.457Z,99755.00
2023-03-11T07:32:35.150Z,99765.00
2023-03-11T07:35:02.001Z,99776.00
2023-03-11T07:37:28.647Z,99743.00
2023-03-11T07:39:55.173Z,99773.00
2023-03-11T07:42:22.293Z,99791.00
2023-03-11T07:44:52.098Z,99791.00
2023-03-11T07:47:18.912Z,99796.00
2023-03-11T07:49:45.708Z,99798.00
2023-03-11T07:52:12.325Z,99810.00
2023-03-11T07:54:38.813Z,99794.00
2023-03-11T07:57:07.541Z,99787.00
2023-03-11T07:59:34.037Z,99818.00
2023-03-11T08:02:02.778Z,99833.00
2023-03-11T08:04:31.922Z,99835.00
2023-03-11T08:06:58.577Z,99813.00
2023-03-11T08:09:25.190Z,99827.00
2023-03-11T08:11:52.165Z,99843.00
2023-03-11T08:14:19.393Z,99835.00
2023-03-11T08:16:46.184Z,99852.00
2023-03-11T08:19:13.599Z,99842.00
2023-03-11T08:21:41.929Z,99842.00
2023-03-11T08:24:12.123Z,99881.00
2023-03-11T08:26:39.156Z,99882.00
2023-03-11T08:29:08.718Z,99892.00
2023-03-11T08:31:41.253Z,99907.00
2023-03-11T08:34:14.538Z,99901.00
2023-03-11T08:36:41.764Z,99919.00
2023-03-11T08:39:11.075Z,99924.00
2023-03-11T08:41:37.855Z,99910.00
2023-03-11T08:44:04.509Z,99924.00
2023-03-11T08:46:37.193Z,99922.00
2023-03-11T08:49:04.512Z,99939.00
2023-03-11T08:51:34.400Z,99941.00
2023-03-11T08:54:02.363Z,99952.00
2023-03-11T08:56:29.724Z,99938.00
2023-03-11T08:58:57.778Z,99947.00
2023-03-11T09:01:24.427Z,99961.00
2023-03-11T09:03:51.378Z,99961.00
2023-03-11T09:06:21.091Z,99952.00
2023-03-11T09:08:50.995Z,99960.00
2023-03-11T09:11:19.028Z,99981.00
2023-03-11T09:13:48.511Z,99980.00
2023-03-11T09:16:23.042Z,99984.00
2023-03-11T09:18:49.938Z,99999.00
2023-03-11T09:21:19.836Z,100004.00
2023-03-11T09:23:49.619Z,100008.00
2023-03-11T09:26:16.480Z,99999.00
2023-03-11T09:28:43.809Z,99999.00
2023-03-11T09:31:11.059Z,100008.00
2023-03-11T09:33:42.263Z,100013.00
2023-03-11T09:36:17.509Z,100018.00
2023-03-11T09:38:45.532Z,100030.00
2023-03-11T09:41:18.302Z,100034.00
2023-03-11T09:44:09.357Z,100024.00
2023-03-11T09:47:04.109Z,100012.00
2023-03-11T09:50:04.892Z,100027.00
2023-03-11T09:52:44.364Z,100026.00
2023-03-11T09:55:38.435Z,100037.00
2023-03-11T09:58:13.028Z,100050.00
2023-03-11T10:00:40.784Z,100046.00
2023-03-11T10:03:17.657Z,100022.00
2023-03-11T10:05:47.514Z,100031.00
2023-03-11T10:08:44.338Z,100036.00
2023-03-11T10:11:32.262Z,100035.00
2023-03-11T10:14:18.773Z,100021.00
2023-03-11T10:17:02.212Z,100067.00
2023-03-11T10:20:01.357Z,100067.00
2023-03-11T10:22:43.352Z,100093.00
2023-03-11T10:25:15.712Z,100098.00
2023-03-11T10:27:51.915Z,100110.00
2023-03-11T10:30:39.806Z,100097.00
2023-03-11T10:33:31.986Z,100108.00
2023-03-11T10:36:04.213Z,100109.00
2023-03-11T10:38:39.603Z,100124.00
2023-03-11T10:41:22.888Z,100126.00
2023-03-11T10:44:00.514Z,100119.00
2023-03-11T10:46:31.280Z,100126.00
2023-03-11T10:48:58.118Z,100120.00
2023-03-11T10:51:35.603Z,100133.00
2023-03-11T10:54:05.869Z,100137.00
2023-03-11T10:56:41.594Z,100125.00
2023-03-11T10:59:48.880Z,100128.00
2023-03-11T11:02:26.357Z,100129.00
2023-03-11T11:05:16.880Z,100147.00
2023-03-11T11:08:02.299Z,100147.00
2023-03-11T11:10:29.689Z,100136.00
2023-03-11T11:12:57.917Z,100144.00
2023-03-11T11:15:40.613Z,100142.00
2023-03-11T11:18:59.589Z,100138.00
2023-03-11T11:21:40.970Z,100160.00
2023-03-11T11:24:24.820Z,100160.00
2023-03-11T11:27:16.699Z,100148.00
2023-03-11T11:29:44.382Z,100153.00
2023-03-11T11:32:14.065Z,100127.00
2023-03-11T11:34:41.417Z,100159.00
2023-03-11T11:37:16.007Z,100155.00
2023-03-11T11:40:15.038Z,100147.00
2023-03-11T11:47:17.791Z,100144.00
2023-03-11T12:12:14.653Z,100183.00
2023-03-11T12:17:45.058Z,100178.00
2023-03-11T12:20:14.271Z,100179.00
2023-03-11T12:23:11.867Z,100185.00
2023-03-11T12:26:06.051Z,100195.00
2023-03-11T12:28:42.096Z,100195.00
2023-03-11T12:31:11.120Z,100190.00
2023-03-11T12:33:42.173Z,100213.00
2023-03-11T12:36:23.649Z,100206.00
2023-03-11T12:38:52.144Z,100213.00
2023-03-11T12:41:29.654Z,100221.00
2023-03-11T12:44:02.297Z,100218.00
2023-03-11T12:47:07.978Z,100215.00
2023-03-11T12:49:47.634Z,100216.00
2023-03-11T12:52:14.146Z,100227.00
2023-03-11T12:54:42.513Z,100226.00
2023-03-11T12:57:21.221Z,100229.00
2023-03-11T13:00:25.733Z,100225.00
2023-03-11T13:03:25.460Z,100236.00
2023-03-11T13:06:03.570Z,100237.00
2023-03-11T13:08:51.428Z,100239.00
2023-03-11T13:11:35.543Z,100245.00
2023-03-11T13:14:26.679Z,100254.00
2023-03-11T13:16:55.058Z,100243.00
2023-03-11T13:19:27.328Z,100256.00
2023-03-11T13:21:55.581Z,100250.00
2023-03-11T13:24:22.454Z,100254.00
2023-03-11T13:27:07.454Z,100253.00
2023-03-11T13:29:54.273Z,100256.00
2023-03-11T13:32:47.157Z,100267.00
2023-03-11T13:35:36.806Z,100267.00
2023-03-11T13:38:16.007Z,100271.00
2023-03-11T13:40:46.084Z,100269.00
2023-03-11T13:43:19.038Z,100283.00
2023-03-11T13:45:52.671Z,100269.00
2023-03-11T13:48:42.137Z,100282.00
2023-03-11T13:51:17.252Z,100281.00
2023-03-11T13:53:56.482Z,100285.00
2023-03-11T13:56:31.750Z,100288.00
2023-03-11T13:59:17.517Z,100292.00
2023-03-11T14:01:56.668Z,100296.00
2023-03-11T14:04:32.063Z,100305.00
2023-03-11T14:06:59.726Z,100303.00
2023-03-11T14:09:28.668Z,100269.00
2023-03-11T14:12:03.573Z,100257.00
2023-03-11T14:14:53.167Z,100271.00
2023-03-11T14:17:21.925Z,100277.00
2023-03-11T14:20:23.727Z,100287.00
2023-03-11T14:22:53.297Z,100280.00
2023-03-11T14:25:26.223Z,100282.00
2023-03-11T14:28:01.856Z,100295.00
2023-03-11T14:30:31.756Z,100288.00
2023-03-11T14:33:04.445Z,100318.00
2023-03-11T14:35:33.912Z,100295.00
2023-03-11T14:38:20.291Z,100321.00
2023-03-11T14:40:54.090Z,100336.00
2023-03-11T14:43:22.067Z,100331.00
2023-03-11T14:45:51.437Z,100297.00
2023-03-11T14:48:37.187Z,100309.00
2023-03-11T14:51:06.047Z,100305.00
2023-03-11T14:53:48.196Z,100301.00
2023-03-11T14:56:21.674Z,100304.00
2023-03-11T14:59:18.649Z,100314.00
2023-03-11T15:01:48.237Z,100304.00
2023-03-11T15:04:27.849Z,100299.00
2023-03-11T15:06:55.362Z,100306.00
2023-03-11T15:09:23.760Z,100305.00
2023-03-11T15:11:56.137Z,100313.00
2023-03-11T15:14:35.228Z,100318.00
2023-03-11T15:17:38.405Z,100325.00
2023-03-11T15:20:23.633Z,100316.00
2023-03-11T15:22:58.266Z,100318.00
2023-03-11T15:25:27.034Z,100320.00
2023-03-11T15:27:55.572Z,100319.00
2023-03-11T15:30:29.206Z,100323.00
2023-03-11T15:32:57.341Z,100316.00
2023-03-11T15:35:30.608Z,100321.00
2023-03-11T15:38:21.614Z,100339.00
2023-03-11T15:40:57.551Z,100337.00
2023-03-11T15:43:41.141Z,100337.00
2023-03-11T15:46:11.194Z,100332.00
2023-03-11T15:48:38.016Z,100341.00
2023-03-11T15:51:04.622Z,100349.00
2023-03-11T15:53:31.225Z,100357.00
2023-03-11T15:56:07.270Z,100350.00
2023-03-11T15:58:36.264Z,100353.00
2023-03-11T16:01:03.247Z,100354.00
2023-03-11T16:03:32.221Z,100365.00
2023-03-11T16:05:59.102Z,100368.00
2023-03-11T16:08:25.636Z,100371.00
2023-03-11T16:10:54.870Z,100375.00
2023-03-11T16:13:21.637Z,100375.00
2023-03-11T16:15:48.813Z,100386.00
2023-03-11T16:18:15.866Z,100389.00
2023-03-11T16:20:53.128Z,100391.00
2023-03-11T16:23:25.411Z,100397.00
2023-03-11T16:25:55.718Z,100403.00
2023-03-11T16:28:22.196Z,100408.00
2023-03-11T16:30:51.354Z,100411.00
2023-03-11T16:33:17.914Z,100418.00
2023-03-11T16:35:44.665Z,100422.00
2023-03-11T16:38:11.452Z,100423.00
2023-03-11T16:40:37.976Z,100426.00
2023-03-11T16:43:16.307Z,100430.00
2023-03-11T16:45:43.093Z,100446.00
2023-03-11T16:48:09.896Z,100437.00
2023-03-11T16:50:37.707Z,100434.00
2023-03-11T16:53:05.009Z,100435.00
2023-03-11T16:55:31.710Z,100442.00
2023-03-11T16:57:59.292Z,100446.00
2023-03-11T17:00:26.438Z,100441.00
2023-03-11T17:02:52.902Z,100450.00
2023-03-11T17:05:20.447Z,100451.00
2023-03-11T17:07:47.873Z,100443.00
2023-03-11T17:10:14.655Z,100457.00
2023-03-11T17:12:41.256Z,100461.00
2023-03-11T17:15:08.573Z,100460.00
2023-03-11T17:17:35.422Z,100466.00
2023-03-11T17:20:02.016Z,100471.00
2023-03-11T17:22:28.552Z,100475.00
2023-03-11T17:24:55.334Z,100472.00
2023-03-11T17:27:21.832Z,100478.00
2023-03-11T17:29:48.418Z,100472.00
2023-03-11T17:32:18.047Z,100472.00
2023-03-11T17:34:45.565Z,100476.00
2023-03-11T17:37:12.477Z,100476.00
2023-03-11T17:39:39.294Z,100476.00
2023-03-11T17:42:05.927Z,100478.00
2023-03-11T17:44:51.103Z,100489.00
2023-03-11T17:47:19.928Z,100476.00
2023-03-11T17:49:47.020Z,100485.00
2023-03-11T17:52:13.575Z,100490.00
2023-03-11T17:54:40.045Z,100491.00
2023-03-11T17:57:07.128Z,100496.00
2023-03-11T17:59:35.661Z,100503.00
2023-03-11T18:02:02.473Z,100496.00
2023-03-11T18:04:29.484Z,100492.00
2023-03-11T18:06:59.149Z,100497.00
2023-03-11T18:09:25.790Z,100496.00
2023-03-11T18:11:52.584Z,100495.00
2023-03-11T18:14:20.251Z,100499.00
2023-03-11T18:16:48.147Z,100502.00
2023-03-11T18:19:14.712Z,100505.00
2023-03-11T18:21:41.248Z,100511.00
2023-03-11T18:24:07.756Z,100509.00
2023-03-11T18:26:34.823Z,100519.00
2023-03-11T18:29:02.528Z,100521.00
2023-03-11T18:31:30.554Z,100516.00
2023-03-11T18:34:00.369Z,100520.00
2023-03-11T18:36:29.207Z,100521.00
2023-03-11T18:38:57.277Z,100525.00
2023-03-11T18:41:25.031Z,100529.00
2023-03-11T18:43:53.201Z,100525.00
2023-03-11T18:46:20.117Z,100529.00
2023-03-11T18:48:50.440Z,100530.00
2023-03-11T18:51:19.582Z,100528.00
2023-03-11T18:53:46.296Z,100516.00
2023-03-11T18:56:15.191Z,100523.00
2023-03-11T18:58:42.052Z,100526.00
2023-03-11T19:01:15.780Z,100522.00
2023-03-11T19:03:45.186Z,100521.00
2023-03-11T19:06:13.635Z,100522.00
2023-03-11T19:08:40.479Z,100520.00
2023-03-11T19:11:12.724Z,100519.00
2023-03-11T19:13:47.068Z,100516.00
2023-03-11T19:16:16.450Z,100522.00
2023-03-11T19:18:44.329Z,100520.00
2023-03-11T19:21:12.716Z,100521.00
2023-03-11T19:23:39.676Z,100525.00
2023-03-11T19:26:06.443Z,100529.00
2023-03-11T19:28:32.974Z,100532.00
2023-03-11T19:30:59.808Z,100530.00
2023-03-11T19:33:26.757Z,100538.00
2023-03-11T19:35:54.984Z,100531.00
2023-03-11T19:38:22.716Z,100537.00
2023-03-11T19:41:02.828Z,100532.00
2023-03-11T19:43:35.904Z,100538.00
2023-03-11T19:46:03.885Z,100535.00
2023-03-11T19:48:30.747Z,100530.00
2023-03-11T19:50:58.615Z,100528.00
2023-03-11T19:53:26.855Z,100531.00
2023-03-11T19:55:55.636Z,100532.00
2023-03-11T19:58:29.423Z,100529.00
2023-03-11T20:00:58.500Z,100526.00
2023-03-11T20:03:25.881Z,100529.00
2023-03-11T20:05:56.791Z,100529.00
2023-03-11T20:08:24.803Z,100537.00
2023-03-11T20:10:52.607Z,100529.00
2023-03-11T20:13:21.324Z,100521.00
2023-03-11T20:15:48.043Z,100527.00
2023-03-11T20:18:14.842Z,100527.00
2023-03-11T20:20:43.889Z,100535.00
2023-03-11T20:23:12.562Z,100527.00
2023-03-11T20:25:40.083Z,100527.00
2023-03-11T20:28:06.870Z,100535.00
2023-03-11T20:30:35.778Z,100527.00
2023-03-11T20:33:05.208Z,100534.00
2023-03-11T20:35:32.345Z,100543.00
2023-03-11T20:37:59.442Z,100535.00
2023-03-11T20:40:29.644Z,100542.00
2023-03-11T20:42:56.224Z,100541.00
2023-03-11T20:45:23.891Z,100540.00
2023-03-11T20:47:53.845Z,100547.00
2023-03-11T20:50:21.382Z,100543.00
2023-03-11T20:52:49.540Z,100543.00
2023-03-11T20:55:18.982Z,100542.00
2023-03-11T20:57:47.110Z,100537.00
2023-03-11T21:00:14.136Z,100531.00
2023-03-11T21:02:43.071Z,100547.00
2023-03-11T21:05:15.168Z,100540.00
2023-03-11T21:07:41.839Z,100542.00
2023-03-11T21:10:17.706Z,100534.00
2023-03-11T21:12:45.844Z,100542.00
2023-03-11T21:15:12.652Z,100537.00
2023-03-11T21:17:39.231Z,100543.00
2023-03-11T21:20:06.430Z,100540.00
2023-03-11T21:22:34.325Z,100555.00
2023-03-11T21:25:01.114Z,100550.00
2023-03-11T21:27:28.131Z,100549.00
2023-03-11T21:29:55.762Z,100539.00
2023-03-11T21:32:23.351Z,100554.00
2023-03-11T21:34:49.983Z,100548.00
2023-03-11T21:37:16.944Z,100541.00
2023-03-11T21:39:45.607Z,100541.00
2023-03-11T21:42:13.536Z,100536.00
2023-03-11T21:44:41.778Z,100541.00
2023-03-11T21:47:12.139Z,100539.00
2023-03-11T21:49:39.121Z,100535.00
2023-03-11T21:52:06.655Z,100515.00
2023-03-11T21:54:33.469Z,100529.00
2023-03-11T21:57:00.140Z,100529.00
2023-03-11T21:59:26.871Z,100524.00
2023-03-11T22:01:54.806Z,100527.00
2023-03-11T22:04:21.544Z,100532.00
2023-03-11T22:06:48.212Z,100534.00
2023-03-11T22:09:16.451Z,100534.00
2023-03-11T22:11:42.946Z,100530.00
2023-03-11T22:14:09.802Z,100526.00
2023-03-11T22:16:38.813Z,100526.00
2023-03-11T22:19:08.942Z,100518.00
2023-03-11T22:21:35.631Z,100522.00
2023-03-11T22:24:02.482Z,100516.00
2023-03-11T22:26:29.064Z,100519.00
2023-03-11T22:28:56.406Z,100528.00
2023-03-11T22:31:23.462Z,100526.00
2023-03-11T22:33:50.325Z,100523.00
2023-03-11T22:36:17.296Z,100530.00
2023-03-11T22:38:45.491Z,100537.00
2023-03-11T22:41:13.436Z,100530.00
2023-03-11T22:43:40.521Z,100530.00
2023-03-11T22:46:07.897Z,100533.00
2023-03-11T22:48:35.551Z,100533.00
2023-03-11T22:51:02.291Z,100536.00
2023-03-11T22:53:29.042Z,100541.00
2023-03-11T22:55:55.647Z,100534.00
2023-03-11T22:58:23.476Z,100524.00
2023-03-11T23:00:50.248Z,100533.00
2023-03-11T23:03:16.985Z,100530.00
2023-03-11T23:05:45.910Z,100530.00
2023-03-11T23:08:15.386Z,100526.00
2023-03-11T23:10:44.846Z,100528.00
2023-03-11T23:13:12.746Z,100525.00
2023-03-11T23:15:46.884Z,100531.00
2023-03-11T23:18:14.698Z,100529.00
2023-03-11T23:20:43.593Z,100534.00
2023-03-11T23:23:15.467Z,100540.00
2023-03-11T23:25:44.500Z,100533.00
2023-03-11T23:28:11.318Z,100533.00
2023-03-11T23:30:42.260Z,100541.00
2023-03-11T23:33:08.871Z,100528.00
2023-03-11T23:35:40.972Z,100538.00
2023-03-11T23:38:07.836Z,100538.00
2023-03-11T23:40:34.620Z,100528.00
2023-03-11T23:43:02.534Z,100543.00
2023-03-11T23:45:29.102Z,100540.00
2023-03-11T23:47:55.617Z,100543.00
2023-03-11T23:50:22.117Z,100547.00
2023-03-11T23:52:49.096Z,100551.00
2023-03-11T23:55:16.334Z,100551.00
2023-03-11T23:57:43.874Z,100542.00
